RTS weather

Rottnest Island Airport
Western Australia, Australia

Public forecast

Using degrees Celsius for public forecast. Weather courtesy of forecast.io.

Closest aviation weather report (METAR) to Rottnest Island Airport

Closest report is Perth Jandakot Airport, 18.2 nm (33.7 km) ESE. Retrieved 2019/12/10 08:30 UTC (0 seconds ago):

YPJT 100830Z AUTO 23014KT 9999 // ////// 34/11 Q1014 RF000/0000

Closest aviation forecast (TAF) to Rottnest Island Airport

Closest forecast is Perth Jandakot Airport, 18.2 nm (33.7 km) ESE. Retrieved 2019/12/10 06:00 UTC (2 hours ago):

TAF YPJT 100501Z 1006/1100 22015KT CAVOK FM101200 18010KT CAVOK FM101500 10018G30KT CAVOK